Time;durP1;ratioP1;P1;durP2;ratioP2;P2;SDS_P1;SDS_P2;PMS_P1;PMS_P2;Temp;Humidity;BMP_temperature;BMP_pressure;BME280_temperature;BME280_humidity;BME280_pressure;Samples;Min_cycle;Max_cycle;Signal;HPM_P1;HPM_P2
2022/07/20 00:01:54;;;;;;;;;24.50;23.50;;;;;30.51;39.13;101103.91;5098238;27;45270;-53
2022/07/20 00:04:19;;;;;;;;;23.50;21.75;;;;;30.53;40.35;101126.41;5097409;27;45295;-55
2022/07/20 00:06:45;;;;;;;;;25.25;23.50;;;;;30.45;40.17;101126.09;5098659;27;45434;-54
2022/07/20 00:11:54;;;;;;;;;24.20;21.60;;;;;30.28;39.85;101121.66;5098198;27;45295;-54
2022/07/20 00:14:19;;;;;;;;;27.50;23.50;;;;;30.21;40.47;101120.25;5098243;27;45844;-50
2022/07/20 00:16:45;;;;;;;;;27.75;23.75;;;;;30.16;41.06;101133.94;5098269;27;45328;-53
2022/07/20 00:19:10;;;;;;;;;26.25;22.75;;;;;30.16;40.72;101145.75;5098042;27;45936;-52
2022/07/20 00:21:35;;;;;;;;;24.25;19.50;;;;;30.15;40.61;101173.47;5097919;27;45158;-53
2022/07/20 00:24:01;;;;;;;;;27.00;21.75;;;;;30.11;40.56;101222.53;5097605;27;45375;-54
2022/07/20 00:26:26;;;;;;;;;23.25;22.50;;;;;30.07;41.00;101252.41;5098113;27;45232;-52
2022/07/20 00:28:51;;;;;;;;;35.00;24.25;;;;;30.02;41.34;101259.78;5097731;27;46010;-53
2022/07/20 00:31:18;;;;;;;;;29.50;21.75;;;;;29.90;40.37;101287.41;5098178;27;45434;-57
2022/07/20 00:33:48;;;;;;;;;23.20;21.80;;;;;29.81;40.87;101278.00;5097746;27;45283;-49
2022/07/20 00:36:14;;;;;;;;;23.80;22.00;;;;;29.79;41.65;101277.44;5098180;27;45364;-53
2022/07/20 00:38:40;;;;;;;;;26.00;23.00;;;;;29.69;40.94;101258.16;5097577;27;46379;-50
2022/07/20 00:41:05;;;;;;;;;23.00;21.25;;;;;29.60;41.50;101233.16;5097584;27;45462;-53
2022/07/20 00:43:52;;;;;;;;;23.50;20.25;;;;;29.51;41.83;101220.97;5097880;27;45241;-53
2022/07/20 00:46:18;;;;;;;;;32.60;24.40;;;;;29.45;42.57;101216.53;5098307;27;45293;-52
2022/07/20 00:48:43;;;;;;;;;25.00;20.75;;;;;29.36;43.50;101194.25;5097375;27;45382;-51
2022/07/20 00:51:08;;;;;;;;;25.00;22.50;;;;;29.30;43.35;101176.13;5097372;27;45466;-55
2022/07/20 00:53:34;;;;;;;;;26.75;26.00;;;;;29.19;43.54;101158.75;5113577;27;45472;-52
2022/07/20 00:56:00;;;;;;;;;23.00;18.50;;;;;29.14;44.39;101149.69;5097712;27;45367;-53
2022/07/20 00:58:25;;;;;;;;;26.50;21.75;;;;;29.04;45.19;101153.16;5097529;27;45759;-52
2022/07/20 01:00:50;;;;;;;;;22.00;21.25;;;;;28.97;45.29;101141.59;5097297;27;45347;-51
2022/07/20 01:03:16;;;;;;;;;25.50;21.25;;;;;28.90;46.06;101133.53;5097630;27;45421;-51
2022/07/20 01:05:41;;;;;;;;;29.00;23.00;;;;;28.79;46.92;101127.16;5097728;27;45421;-52
2022/07/20 01:08:06;;;;;;;;;29.50;25.25;;;;;28.71;47.01;101111.19;5097051;27;46293;-52
2022/07/20 01:10:32;;;;;;;;;30.25;23.00;;;;;28.63;47.84;101130.00;5097349;27;45430;-54
2022/07/20 01:12:57;;;;;;;;;25.25;23.00;;;;;28.52;47.38;101135.34;5097442;27;45391;-53
2022/07/20 01:15:22;;;;;;;;;28.25;24.25;;;;;28.46;48.20;101124.59;5097663;27;45517;-53
2022/07/20 01:17:48;;;;;;;;;23.50;22.75;;;;;28.41;48.11;101113.59;5097175;27;46898;-54
2022/07/20 01:20:18;;;;;;;;;30.00;26.00;;;;;28.36;48.67;101106.19;5097018;27;45243;-53
2022/07/20 01:22:45;;;;;;;;;28.60;25.40;;;;;28.28;50.06;101142.97;5097098;27;45375;-53
2022/07/20 01:25:10;;;;;;;;;34.25;27.25;;;;;28.19;50.45;101127.25;5097561;27;45613;-54
2022/07/20 01:27:36;;;;;;;;;29.00;28.00;;;;;28.16;50.44;101106.72;5096821;27;46024;-53
2022/07/20 01:30:01;;;;;;;;;29.50;28.25;;;;;28.06;51.26;101101.97;5097166;27;45313;-53
2022/07/20 01:32:27;;;;;;;;;34.75;30.75;;;;;28.09;51.83;101095.97;5097113;27;45642;-52
2022/07/20 01:34:52;;;;;;;;;38.50;32.00;;;;;28.02;51.92;101106.28;5097883;27;45408;-53
2022/07/20 01:37:17;;;;;;;;;37.25;31.00;;;;;28.01;52.21;101103.78;5100422;27;46199;-51
2022/07/20 01:39:43;;;;;;;;;43.00;35.25;;;;;27.97;52.58;101110.84;5100445;27;45232;-55
2022/07/20 01:42:08;;;;;;;;;33.25;31.50;;;;;27.89;53.46;101108.53;5101259;27;45283;-53
2022/07/20 01:44:33;;;;;;;;;39.25;34.50;;;;;27.85;53.29;101106.34;5100698;27;45245;-53
2022/07/20 01:46:59;;;;;;;;;41.25;33.75;;;;;27.83;53.45;101113.13;5100282;27;45339;-52
2022/07/20 01:49:24;;;;;;;;;46.33;37.67;;;;;27.82;53.52;101138.81;5100326;27;45319;-56
2022/07/20 01:51:49;;;;;;;;;49.33;41.00;;;;;27.85;53.06;101158.28;5100487;27;45543;-52
2022/07/20 01:54:15;;;;;;;;;50.67;40.00;;;;;27.87;53.88;101158.00;5100834;27;45427;-54
2022/07/20 01:56:42;;;;;;;;;50.00;40.33;;;;;27.85;53.18;101143.75;5100095;27;46258;-54
2022/07/20 01:59:08;;;;;;;;;54.67;40.33;;;;;27.86;53.19;101142.69;5100510;27;45367;-53
2022/07/20 02:01:34;;;;;;;;;52.67;42.33;;;;;27.93;53.24;101180.78;5100381;27;45323;-54
2022/07/20 02:04:00;;;;;;;;;57.00;44.00;;;;;27.92;52.63;101207.31;5100427;27;45348;-51
2022/07/20 02:06:25;;;;;;;;;53.33;42.67;;;;;27.95;52.50;101231.41;5099942;27;46279;-54
2022/07/20 02:08:51;;;;;;;;;55.00;43.50;;;;;27.94;52.45;101248.91;5099970;27;45367;-54
2022/07/20 02:11:16;;;;;;;;;62.67;44.00;;;;;27.97;52.87;101237.44;5099209;27;45694;-54
2022/07/20 02:13:42;;;;;;;;;57.67;46.00;;;;;27.99;52.93;101209.88;5100383;27;45319;-55
2022/07/20 02:16:16;;;;;;;;;56.33;42.67;;;;;28.00;53.18;101198.66;5099884;27;47016;-54
2022/07/20 02:19:01;;;;;;;;;50.67;40.33;;;;;28.01;52.48;101196.75;5100031;27;45374;-50
2022/07/20 02:21:29;;;;;;;;;56.33;42.33;;;;;28.03;52.83;101176.31;5098695;27;45378;-54
2022/07/20 02:23:55;;;;;;;;;52.67;43.33;;;;;28.05;52.57;101178.78;5100010;27;45156;-54
2022/07/20 02:26:21;;;;;;;;;55.00;42.33;;;;;27.80;52.81;101181.97;5099651;27;46667;-55
2022/07/20 02:28:47;;;;;;;;;52.33;43.00;;;;;28.02;52.69;101240.28;5099869;27;45885;-53
2022/07/20 02:31:13;;;;;;;;;54.67;44.00;;;;;27.99;53.57;101240.78;5099932;27;45270;-54
2022/07/20 02:33:39;;;;;;;;;55.00;43.67;;;;;27.97;53.52;101244.84;5100108;27;45367;-50
2022/07/20 02:36:04;;;;;;;;;51.67;42.67;;;;;27.95;52.86;101236.06;5101045;27;45416;-52
2022/07/20 02:38:30;;;;;;;;;53.33;43.67;;;;;27.92;52.91;101237.38;5103755;27;45437;-51
2022/07/20 02:40:55;;;;;;;;;59.00;45.33;;;;;27.85;53.05;101233.97;5104552;27;45319;-55
2022/07/20 02:43:21;;;;;;;;;52.33;42.67;;;;;27.87;53.02;101241.94;5103207;27;45551;-56
2022/07/20 02:45:46;;;;;;;;;54.00;42.67;;;;;27.76;53.53;101238.22;5100640;27;45467;-54
2022/07/20 02:48:12;;;;;;;;;57.33;44.33;;;;;27.81;53.21;101271.94;5099567;27;45368;-57
2022/07/20 02:50:41;;;;;;;;;56.33;45.33;;;;;27.77;52.94;101270.78;5099923;27;45343;-55
2022/07/20 02:53:08;;;;;;;;;57.00;44.00;;;;;27.76;53.43;101271.03;5099732;27;45167;-54
2022/07/20 02:55:33;;;;;;;;;57.00;43.33;;;;;27.67;53.17;101267.84;5099235;27;46388;-55
2022/07/20 02:57:59;;;;;;;;;56.00;45.67;;;;;27.71;53.21;101279.94;5099409;27;45445;-53
2022/07/20 03:00:24;;;;;;;;;55.00;43.00;;;;;27.71;53.06;101306.44;5099329;27;45390;-56
2022/07/20 03:02:50;;;;;;;;;54.67;46.67;;;;;27.67;53.07;101325.25;5099567;27;45424;-52
2022/07/20 03:05:16;;;;;;;;;52.00;43.33;;;;;27.71;52.71;101355.66;5098883;27;45323;-54
2022/07/20 03:07:42;;;;;;;;;55.00;42.33;;;;;27.73;52.73;101372.69;5098702;27;45312;-53
2022/07/20 03:10:08;;;;;;;;;57.67;44.67;;;;;27.72;52.71;101376.44;5099396;27;45258;-53
2022/07/20 03:12:34;;;;;;;;;56.33;44.67;;;;;27.74;52.39;101363.41;5099337;27;45447;-51
2022/07/20 03:15:00;;;;;;;;;56.33;44.00;;;;;27.69;52.40;101353.16;5098865;27;45492;-53
2022/07/20 03:17:26;;;;;;;;;56.33;44.00;;;;;27.73;52.46;101364.47;5099166;27;45252;-54
2022/07/20 03:19:51;;;;;;;;;57.00;44.00;;;;;27.82;52.28;101376.66;5098898;27;45349;-53
2022/07/20 03:22:17;;;;;;;;;59.00;45.67;;;;;27.82;52.09;101358.34;5099167;27;45277;-54
2022/07/20 03:24:43;;;;;;;;;58.33;46.67;;;;;27.81;51.61;101367.63;5098654;27;45343;-54
2022/07/20 03:27:09;;;;;;;;;56.67;46.33;;;;;27.82;52.08;101365.72;5098428;27;45258;-52
2022/07/20 03:29:35;;;;;;;;;60.00;46.00;;;;;27.87;51.74;101365.81;5098998;27;45364;-55
2022/07/20 03:32:01;;;;;;;;;58.33;45.33;;;;;27.87;51.80;101354.88;5099005;27;45512;-52
2022/07/20 03:34:26;;;;;;;;;56.67;44.00;;;;;27.90;51.66;101350.84;5098180;27;45518;-54
2022/07/20 03:36:52;;;;;;;;;54.00;44.33;;;;;27.89;51.50;101358.19;5098402;27;45404;-55
2022/07/20 03:39:17;;;;;;;;;56.33;45.67;;;;;27.92;51.76;101367.81;5098654;27;45287;-56
2022/07/20 03:41:43;;;;;;;;;53.67;44.33;;;;;27.93;51.70;101367.53;5098641;27;45373;-54
2022/07/20 03:44:09;;;;;;;;;58.00;44.00;;;;;27.91;51.96;101353.31;5098382;27;45275;-54
2022/07/20 03:46:34;;;;;;;;;63.00;47.00;;;;;27.88;52.33;101372.94;5098480;27;45493;-55
2022/07/20 03:49:00;;;;;;;;;52.33;42.33;;;;;27.86;52.61;101372.38;5098414;27;45393;-54
2022/07/20 03:51:25;;;;;;;;;56.67;46.00;;;;;27.85;53.20;101385.22;5098624;27;45584;-52
2022/07/20 03:53:51;;;;;;;;;57.00;46.67;;;;;27.71;53.02;101396.66;5098223;27;46285;-53
2022/07/20 03:56:16;;;;;;;;;51.33;42.67;;;;;27.65;53.77;101401.19;5098334;27;45247;-55
2022/07/20 03:58:42;;;;;;;;;54.00;43.67;;;;;27.58;54.58;101409.53;5097436;27;45223;-54
2022/07/20 04:01:07;;;;;;;;;59.67;43.33;;;;;27.34;53.89;101407.94;5098422;27;45369;-55
2022/07/20 04:03:32;;;;;;;;;49.33;40.33;;;;;27.31;53.74;101463.91;5097956;27;47169;-51
2022/07/20 04:05:58;;;;;;;;;56.67;44.33;;;;;27.05;56.64;101448.84;5098343;27;45293;-53
2022/07/20 04:08:23;;;;;;;;;51.33;42.67;;;;;26.95;56.69;101442.31;5098032;27;45435;-53
2022/07/20 04:10:48;;;;;;;;;56.67;44.00;;;;;26.87;56.63;101421.66;5098387;27;45513;-53
2022/07/20 04:13:14;;;;;;;;;55.33;42.33;;;;;26.85;56.82;101423.81;5097920;27;46154;-54
2022/07/20 04:15:39;;;;;;;;;53.00;41.33;;;;;26.88;56.43;101415.13;5098031;27;45327;-53
2022/07/20 04:18:04;;;;;;;;;53.00;39.00;;;;;26.86;57.64;101398.16;5098433;27;45413;-56
2022/07/20 04:20:30;;;;;;;;;53.33;42.33;;;;;26.94;57.49;101400.53;5098381;27;45441;-54
2022/07/20 04:22:55;;;;;;;;;47.00;38.00;;;;;26.96;56.64;101379.28;5097956;27;45401;-54
2022/07/20 04:25:22;;;;;;;;;49.00;39.00;;;;;27.00;56.41;101355.88;5097940;27;45365;-56
2022/07/20 04:27:49;;;;;;;;;49.00;40.33;;;;;27.04;56.26;101357.06;5097814;27;45307;-54
2022/07/20 04:30:15;;;;;;;;;44.33;36.33;;;;;27.05;55.72;101346.97;5098136;27;45485;-55
2022/07/20 04:32:42;;;;;;;;;41.67;37.00;;;;;27.07;55.82;101342.94;5097685;27;45368;-53
2022/07/20 04:35:08;;;;;;;;;41.75;33.75;;;;;26.99;54.94;101337.84;5097427;27;45363;-54
2022/07/20 04:37:33;;;;;;;;;36.00;31.25;;;;;27.00;53.03;101358.59;5097808;27;45370;-54
2022/07/20 04:39:58;;;;;;;;;35.25;28.75;;;;;26.93;52.78;101349.75;5097963;27;45413;-53
2022/07/20 04:42:24;;;;;;;;;31.25;31.00;;;;;26.89;52.23;101348.56;5097658;27;46182;-53
2022/07/20 04:44:49;;;;;;;;;28.25;24.25;;;;;26.77;52.83;101310.34;5097719;27;45474;-53
2022/07/20 04:47:15;;;;;;;;;34.50;29.00;;;;;26.65;53.30;101304.09;5097841;27;45345;-54
2022/07/20 04:49:40;;;;;;;;;31.75;28.00;;;;;26.44;52.33;101297.34;5097981;27;45284;-54
2022/07/20 04:52:05;;;;;;;;;29.75;27.50;;;;;26.25;53.36;101332.09;5097438;27;45473;-54
2022/07/20 04:54:31;;;;;;;;;27.75;27.00;;;;;26.04;54.55;101333.50;5097606;27;45354;-51
2022/07/20 04:56:56;;;;;;;;;36.50;28.25;;;;;25.94;54.62;101333.22;5097559;27;45394;-55
2022/07/20 04:59:21;;;;;;;;;28.75;28.75;;;;;25.91;55.46;101333.69;5097897;27;45316;-54
2022/07/20 05:01:47;;;;;;;;;35.75;30.00;;;;;25.86;55.54;101360.81;5097447;27;46242;-54
2022/07/20 05:04:13;;;;;;;;;30.00;23.25;;;;;25.72;54.55;101384.69;5113372;27;45356;-52
2022/07/20 05:06:38;;;;;;;;;33.50;28.75;;;;;25.67;56.26;101410.97;5097880;27;45371;-54
2022/07/20 05:09:07;;;;;;;;;29.50;27.75;;;;;25.73;55.81;101429.94;5098424;27;45386;-61
2022/07/20 05:11:33;;;;;;;;;24.50;22.50;;;;;25.69;53.58;101411.56;5101191;27;45399;-53
2022/07/20 05:13:58;;;;;;;;;27.50;24.00;;;;;25.72;54.85;101398.31;5101081;27;45359;-60
2022/07/20 05:16:24;;;;;;;;;27.25;26.50;;;;;25.84;54.68;101371.97;5101071;27;45376;-52
2022/07/20 05:18:49;;;;;;;;;28.50;25.25;;;;;25.93;54.90;101393.44;5101133;27;45466;-59
2022/07/20 05:21:14;;;;;;;;;24.25;19.50;;;;;25.92;54.79;101411.69;5101315;27;45405;-58
2022/07/20 05:23:40;;;;;;;;;25.25;21.50;;;;;25.93;54.61;101380.63;5100675;27;45393;-54
2022/07/20 05:26:05;;;;;;;;;28.00;25.00;;;;;26.00;54.16;101339.63;5101123;27;45533;-54
2022/07/20 05:28:31;;;;;;;;;24.00;21.75;;;;;26.03;54.13;101328.25;5100916;27;45444;-54
2022/07/20 05:30:56;;;;;;;;;24.75;22.00;;;;;26.07;53.63;101329.44;5100570;27;45560;-54
2022/07/20 05:33:22;;;;;;;;;29.00;25.25;;;;;25.94;53.16;101284.16;5100316;27;46484;-56
2022/07/20 05:35:51;;;;;;;;;22.25;21.25;;;;;25.94;54.60;101283.31;5100759;27;45368;-56
2022/07/20 05:38:17;;;;;;;;;18.00;16.50;;;;;25.77;52.01;101322.16;5100795;27;45327;-53
2022/07/20 05:40:43;;;;;;;;;23.00;19.75;;;;;25.69;52.37;101340.72;5100181;27;46297;-55
2022/07/20 05:43:08;;;;;;;;;18.25;17.75;;;;;25.52;51.26;101346.81;5100578;27;45311;-55
2022/07/20 05:45:34;;;;;;;;;25.50;19.75;;;;;25.46;52.48;101334.13;5100609;27;45342;-53
2022/07/20 05:48:00;;;;;;;;;22.25;18.00;;;;;25.36;53.34;101331.94;5100691;27;45526;-54
2022/07/20 05:50:26;;;;;;;;;20.75;19.75;;;;;25.37;53.95;101357.31;5099260;27;45269;-53
2022/07/20 05:52:51;;;;;;;;;17.25;17.00;;;;;25.43;53.55;101367.28;5100373;27;45499;-53
2022/07/20 05:55:18;;;;;;;;;18.25;18.25;;;;;25.44;52.88;101368.94;5100469;27;45379;-54
2022/07/20 05:57:43;;;;;;;;;27.50;24.25;;;;;25.42;52.31;101381.97;5100448;27;45327;-53
2022/07/20 06:00:09;;;;;;;;;29.00;22.50;;;;;25.34;53.15;101401.34;5099993;27;46848;-52
2022/07/20 06:02:34;;;;;;;;;22.00;21.00;;;;;25.28;54.06;101384.03;5100118;27;45283;-60
2022/07/20 06:05:00;;;;;;;;;25.50;21.00;;;;;25.26;54.48;101371.69;5100208;27;45238;-53
2022/07/20 06:07:25;;;;;;;;;26.50;23.00;;;;;25.25;53.82;101353.69;5100462;27;45355;-55
2022/07/20 06:09:51;;;;;;;;;23.75;21.50;;;;;25.31;53.62;101341.88;5099956;27;46091;-54
2022/07/20 06:12:16;;;;;;;;;24.25;22.50;;;;;25.39;53.98;101357.91;5099930;27;45370;-55
2022/07/20 06:14:41;;;;;;;;;23.25;21.50;;;;;25.38;52.34;101367.13;5100286;27;45264;-53
2022/07/20 06:17:07;;;;;;;;;22.75;19.75;;;;;25.36;51.90;101363.78;5100127;27;45384;-57
2022/07/20 06:19:32;;;;;;;;;22.75;21.00;;;;;25.31;53.01;101382.72;5098508;27;45387;-52
2022/07/20 06:21:58;;;;;;;;;26.00;19.50;;;;;25.24;53.35;101395.56;5098953;27;45228;-56
2022/07/20 06:24:23;;;;;;;;;18.50;18.50;;;;;25.08;52.67;101422.38;5100009;27;45454;-53
2022/07/20 06:26:49;;;;;;;;;26.00;23.00;;;;;24.85;54.00;101442.03;5098905;27;45499;-53
2022/07/20 06:29:14;;;;;;;;;28.25;24.00;;;;;24.72;53.58;101425.84;5099689;27;46355;-55
2022/07/20 06:31:40;;;;;;;;;25.75;23.50;;;;;24.67;54.48;101466.50;5099650;27;45282;-54
2022/07/20 06:34:06;;;;;;;;;27.50;23.75;;;;;24.52;54.43;101485.84;5099596;27;45421;-59
2022/07/20 06:36:32;;;;;;;;;20.75;20.25;;;;;24.41;55.12;101486.59;5099954;27;45379;-55
2022/07/20 06:38:58;;;;;;;;;24.50;24.50;;;;;24.30;55.08;101479.09;5099113;27;47051;-53
2022/07/20 06:41:23;;;;;;;;;32.25;23.00;;;;;24.14;56.45;101478.59;5099358;27;45513;-54
2022/07/20 06:43:48;;;;;;;;;27.50;23.00;;;;;24.08;57.04;101489.47;5100009;27;45364;-52
2022/07/20 06:46:14;;;;;;;;;23.25;22.75;;;;;24.00;57.85;101493.28;5099983;27;45471;-58
2022/07/20 06:48:40;;;;;;;;;25.00;23.75;;;;;23.92;55.79;101481.84;5099454;27;46115;-52
2022/07/20 06:51:06;;;;;;;;;24.75;22.00;;;;;23.80;58.16;101473.53;5099285;27;45513;-53
2022/07/20 06:53:31;;;;;;;;;22.50;19.00;;;;;23.74;59.15;101466.25;5099573;27;45244;-54
2022/07/20 06:55:57;;;;;;;;;22.75;21.75;;;;;23.74;59.13;101464.38;5099556;27;45369;-53
2022/07/20 06:58:22;;;;;;;;;23.50;21.50;;;;;23.75;58.81;101470.63;5099205;27;46103;-48
2022/07/20 07:00:48;;;;;;;;;22.75;19.75;;;;;23.72;57.81;101460.19;5099430;27;45255;-55
2022/07/20 07:03:14;;;;;;;;;24.75;20.50;;;;;23.68;58.85;101458.94;5099585;27;45126;-52
2022/07/20 07:05:39;;;;;;;;;21.25;19.00;;;;;23.58;57.92;101454.78;5100121;27;45429;-51
2022/07/20 07:08:05;;;;;;;;;25.50;21.00;;;;;23.48;60.65;101446.28;5099249;27;45408;-53
2022/07/20 07:10:30;;;;;;;;;19.50;19.50;;;;;23.44;60.19;101439.59;5098979;27;45990;-52
2022/07/20 07:12:55;;;;;;;;;24.25;19.75;;;;;23.42;60.45;101441.69;5099342;27;45322;-53
2022/07/20 07:15:21;;;;;;;;;27.00;24.25;;;;;23.30;59.40;101435.25;5099247;27;45260;-50
2022/07/20 07:17:46;;;;;;;;;22.50;20.00;;;;;23.07;61.98;101439.28;5099003;27;45367;-51
2022/07/20 07:20:11;;;;;;;;;23.50;21.00;;;;;22.78;63.18;101412.59;5097697;27;45396;-53
2022/07/20 07:22:37;;;;;;;;;22.75;20.75;;;;;22.83;63.55;101442.63;5098983;27;45430;-54
2022/07/20 07:25:03;;;;;;;;;25.67;24.00;;;;;22.76;65.55;101439.94;5098955;27;45218;-52
2022/07/20 07:27:28;;;;;;;;;23.25;19.75;;;;;22.72;63.88;101413.47;5098536;27;46060;-53
2022/07/20 07:29:54;;;;;;;;;22.75;19.75;;;;;22.77;64.93;101402.81;5098561;27;45528;-52
2022/07/20 07:32:19;;;;;;;;;21.67;19.33;;;;;22.79;64.05;101439.50;5099065;27;45694;-52
2022/07/20 07:34:44;;;;;;;;;23.33;19.33;;;;;22.80;64.04;101476.47;5098572;27;45436;-51
2022/07/20 07:37:11;;;;;;;;;25.67;21.33;;;;;22.80;65.21;101451.22;5098841;27;46296;-54
2022/07/20 07:39:37;;;;;;;;;20.50;19.25;;;;;22.81;64.54;101440.16;5098371;27;45142;-52
2022/07/20 07:42:02;;;;;;;;;23.75;20.25;;;;;22.75;63.92;101449.09;5098661;27;45271;-55
2022/07/20 07:44:28;;;;;;;;;22.67;21.67;;;;;22.76;64.52;101463.53;5098777;27;45476;-54
2022/07/20 07:46:53;;;;;;;;;20.00;18.25;;;;;22.78;63.94;101458.72;5098218;27;46213;-55
2022/07/20 07:49:18;;;;;;;;;23.25;21.25;;;;;22.79;64.72;101454.94;5098341;27;45386;-53
2022/07/20 07:51:44;;;;;;;;;24.25;19.50;;;;;22.93;63.75;101455.81;5098518;27;45182;-53
2022/07/20 07:54:09;;;;;;;;;23.25;23.25;;;;;22.95;63.62;101459.16;5098646;27;45287;-51
2022/07/20 07:56:35;;;;;;;;;23.75;21.00;;;;;23.08;63.37;101486.25;5098167;27;46133;-53
2022/07/20 07:59:01;;;;;;;;;27.33;22.33;;;;;23.25;62.84;101492.06;5098167;27;45396;-50
2022/07/20 08:01:27;;;;;;;;;13.00;12.00;;;;;23.31;60.88;101489.34;5098286;27;45288;-50
2022/07/20 08:03:53;;;;;;;;;23.75;19.50;;;;;23.45;61.91;101498.28;5098534;27;45319;-52
2022/07/20 08:06:18;;;;;;;;;22.25;20.50;;;;;23.69;60.99;101502.22;5097961;27;47022;-49
2022/07/20 08:08:43;;;;;;;;;27.50;24.00;;;;;24.07;60.47;101504.97;5098534;27;45331;-52
2022/07/20 08:11:09;;;;;;;;;23.50;18.25;;;;;24.91;58.27;101491.22;5097953;27;45499;-51
2022/07/20 08:13:35;;;;;;;;;25.75;21.50;;;;;25.73;55.63;101502.69;5098426;27;45304;-50
2022/07/20 08:16:00;;;;;;;;;21.50;19.75;;;;;25.81;55.19;101508.69;5097925;27;45235;-53
2022/07/20 08:18:26;;;;;;;;;26.25;21.50;;;;;25.55;55.46;101495.38;5097926;27;45493;-53
2022/07/20 08:20:52;;;;;;;;;22.25;21.25;;;;;25.38;55.68;101495.97;5098171;27;45327;-51
2022/07/20 08:23:17;;;;;;;;;27.75;23.50;;;;;25.37;55.71;101498.94;5098056;27;45163;-50
2022/07/20 08:25:42;;;;;;;;;27.00;25.25;;;;;25.45;56.54;101503.22;5097682;27;45987;-52
2022/07/20 08:28:11;;;;;;;;;23.00;19.75;;;;;25.33;55.40;101497.72;5097931;27;45374;-52
2022/07/20 08:30:38;;;;;;;;;25.00;22.75;;;;;25.07;56.45;101496.91;5097961;27;45469;-54
2022/07/20 08:33:04;;;;;;;;;23.75;21.25;;;;;25.00;56.98;101492.59;5097999;27;45442;-51
2022/07/20 08:35:29;;;;;;;;;23.75;21.25;;;;;24.96;56.35;101492.19;5097703;27;45670;-55
2022/07/20 08:37:54;;;;;;;;;22.25;21.25;;;;;24.93;56.07;101506.25;5096451;27;45393;-49
2022/07/20 08:40:20;;;;;;;;;23.25;21.25;;;;;24.86;55.78;101517.19;5097791;27;45580;-51
2022/07/20 08:42:45;;;;;;;;;23.25;20.75;;;;;24.95;55.71;101503.31;5097762;27;45322;-51
2022/07/20 08:45:11;;;;;;;;;24.00;23.00;;;;;25.43;54.36;101499.91;5101816;27;46033;-59
2022/07/20 08:47:39;;;;;;;;;23.50;20.25;;;;;25.45;54.66;101504.09;5104549;27;45276;-55
2022/07/20 08:50:05;;;;;;;;;24.50;21.50;;;;;25.37;53.99;101520.72;5104507;27;45386;-60
2022/07/20 08:52:30;;;;;;;;;26.75;22.75;;;;;25.30;54.39;101515.34;5104607;27;45455;-52
2022/07/20 08:54:56;;;;;;;;;27.00;20.25;;;;;25.26;55.09;101507.84;5104240;27;46196;-52
2022/07/20 08:57:21;;;;;;;;;26.50;22.75;;;;;25.33;54.53;101516.78;5104401;27;45438;-52
2022/07/20 08:59:47;;;;;;;;;23.75;21.00;;;;;25.37;54.19;101509.84;5104534;27;45455;-54
2022/07/20 09:02:13;;;;;;;;;24.75;21.00;;;;;25.94;52.97;101509.59;5104586;27;45332;-55
2022/07/20 09:04:49;;;;;;;;;25.25;20.50;;;;;26.01;53.16;101494.81;5104184;27;46060;-51
2022/07/20 09:07:14;;;;;;;;;21.50;18.00;;;;;26.00;52.92;101475.94;5104000;27;45352;-52
2022/07/20 09:09:39;;;;;;;;;19.00;18.25;;;;;26.28;51.85;101499.88;5104618;27;45469;-52
2022/07/20 09:12:05;;;;;;;;;26.00;20.50;;;;;26.36;51.83;101497.63;5104526;27;45491;-59
2022/07/20 09:14:49;;;;;;;;;23.00;20.00;;;;;26.45;52.09;101495.44;5104018;27;47178;-53
2022/07/20 09:17:16;;;;;;;;;23.00;20.20;;;;;26.59;51.03;101482.44;5103914;27;45507;-52
2022/07/20 09:19:54;;;;;;;;;28.75;22.50;;;;;26.95;50.34;101475.09;5104385;27;45300;-52
2022/07/20 09:22:30;;;;;;;;;24.50;15.00;;;;;26.89;50.11;101474.16;5104534;27;45528;-55
2022/07/20 09:25:10;;;;;;;;;25.25;18.25;;;;;26.73;50.04;101477.56;5103878;27;45391;-53
2022/07/20 09:27:36;;;;;;;;;19.60;18.20;;;;;26.76;50.49;101485.31;5103713;27;45228;-55
2022/07/20 09:30:12;;;;;;;;;21.50;19.75;;;;;26.66;51.00;101490.50;5104417;27;45216;-53
2022/07/20 09:33:02;;;;;;;;;20.75;17.00;;;;;26.49;50.72;101495.81;5104173;27;45375;-50
2022/07/20 09:35:31;;;;;;;;;18.00;18.00;;;;;26.41;51.04;101502.41;5103787;27;46325;-55
2022/07/20 09:37:58;;;;;;;;;18.60;15.80;;;;;26.33;50.71;101497.28;5103810;27;45336;-51
2022/07/20 09:40:24;;;;;;;;;16.00;14.40;;;;;26.14;51.08;101496.50;5103809;27;45357;-52
2022/07/20 09:42:51;;;;;;;;;17.00;13.75;;;;;25.93;51.40;101502.47;5103554;27;46369;-53
2022/07/20 09:45:20;;;;;;;;;16.80;13.40;;;;;25.64;51.51;101508.44;5103505;27;45465;-54
2022/07/20 09:48:05;;;;;;;;;14.00;12.80;;;;;25.40;52.58;101520.25;5103773;27;45375;-56
2022/07/20 09:50:36;;;;;;;;;16.80;14.80;;;;;25.26;53.32;101529.63;5103717;27;45296;-56
2022/07/20 09:53:01;;;;;;;;;14.75;13.25;;;;;25.06;52.90;101532.50;5103893;27;45246;-53
2022/07/20 09:55:27;;;;;;;;;13.25;11.25;;;;;24.82;54.61;101528.75;5101114;27;46564;-54
2022/07/20 09:57:54;;;;;;;;;15.50;14.25;;;;;24.73;55.06;101538.22;5100180;27;45655;-53
2022/07/20 10:00:20;;;;;;;;;17.20;13.60;;;;;24.68;55.72;101555.22;5100400;27;45295;-53
2022/07/20 10:02:50;;;;;;;;;12.50;12.50;;;;;24.59;55.13;101540.22;5100377;27;45478;-53
2022/07/20 10:05:19;;;;;;;;;14.50;14.50;;;;;24.57;55.59;101542.34;5100086;27;45308;-51
2022/07/20 10:07:46;;;;;;;;;19.20;16.80;;;;;24.51;56.19;101546.75;5115726;27;45827;-51
2022/07/20 10:10:12;;;;;;;;;13.75;12.00;;;;;24.43;56.65;101538.03;5100258;27;45287;-52
2022/07/20 10:12:38;;;;;;;;;17.25;14.25;;;;;24.54;56.61;101532.72;5100079;27;45878;-56
2022/07/20 10:15:10;;;;;;;;;12.00;8.25;;;;;24.73;55.46;101533.63;5099944;27;45435;-50
2022/07/20 10:17:36;;;;;;;;;13.00;11.40;;;;;24.83;55.12;101524.97;5100609;27;45402;-58
2022/07/20 10:20:02;;;;;;;;;12.75;10.25;;;;;24.83;55.45;101536.69;5100032;27;45380;-53
2022/07/20 10:22:27;;;;;;;;;14.75;13.00;;;;;24.87;55.04;101542.53;5100098;27;45521;-54
2022/07/20 10:25:14;;;;;;;;;12.50;12.50;;;;;24.75;54.82;101556.00;5099638;27;46102;-54
2022/07/20 10:27:40;;;;;;;;;12.60;11.20;;;;;24.46;55.68;101546.59;5099623;27;45378;-53
2022/07/20 10:30:17;;;;;;;;;13.25;11.00;;;;;24.48;55.62;101551.78;5099945;27;45414;-54
2022/07/20 10:32:53;;;;;;;;;19.50;14.75;;;;;24.31;55.62;101560.47;5099774;27;45316;-55
2022/07/20 10:35:29;;;;;;;;;15.50;14.00;;;;;24.20;56.49;101549.44;5099647;27;47165;-57
2022/07/20 10:37:56;;;;;;;;;20.60;14.60;;;;;24.18;55.40;101535.22;5115540;27;46971;-54
2022/07/20 10:40:28;;;;;;;;;14.00;12.00;;;;;24.06;56.15;101529.63;5100565;27;45272;-53
2022/07/20 10:43:13;;;;;;;;;15.25;12.75;;;;;23.96;56.62;101521.13;5099669;27;45441;-52
2022/07/20 10:45:39;;;;;;;;;16.25;12.50;;;;;23.98;56.80;101530.72;5099590;27;46108;-56
2022/07/20 10:48:14;;;;;;;;;14.00;12.25;;;;;23.93;56.87;101526.97;5099236;27;45809;-52
2022/07/20 10:50:40;;;;;;;;;10.00;9.00;;;;;23.84;56.41;101537.25;5099849;27;45338;-51
2022/07/20 10:53:15;;;;;;;;;12.50;12.50;;;;;23.76;57.66;101534.78;5099979;27;45611;-54
2022/07/20 10:55:50;;;;;;;;;13.50;12.75;;;;;23.74;57.94;101521.41;5099522;27;45256;-52
2022/07/20 10:58:24;;;;;;;;;10.00;10.00;;;;;23.72;57.66;101533.53;5099334;27;45756;-53
2022/07/20 11:00:55;;;;;;;;;17.75;13.00;;;;;23.73;57.88;101552.34;5099817;27;45445;-52
2022/07/20 11:03:42;;;;;;;;;18.25;14.25;;;;;23.75;58.71;101555.69;5115668;27;45495;-53
2022/07/20 11:06:10;;;;;;;;;12.00;12.00;;;;;23.73;59.36;101562.41;5099430;27;45356;-54
2022/07/20 11:08:37;;;;;;;;;15.25;13.50;;;;;23.78;59.62;101562.56;5098736;27;45250;-54
2022/07/20 11:11:03;;;;;;;;;13.75;13.50;;;;;23.81;59.54;101554.84;5099119;27;45383;-53